Time;durP1;ratioP1;P1;durP2;ratioP2;P2;SDS_P1;SDS_P2;PMS_P1;PMS_P2;Temp;Humidity;BMP_temperature;BMP_pressure;BME280_temperature;BME280_humidity;BME280_pressure;Samples;Min_cycle;Max_cycle;Signal;HPM_P1;HPM_P2
2022/05/22 00:00:09;;;;;;;16.25;5.50;;;;;;;13.10;100.00;101920.41;5020657;28;20040;-43
2022/05/22 00:02:34;;;;;;;15.15;5.45;;;;;;;13.14;100.00;101911.91;5018836;28;20522;-46
2022/05/22 00:05:00;;;;;;;14.15;4.97;;;;;;;13.15;100.00;101912.75;5020204;28;20041;-47
2022/05/22 00:07:25;;;;;;;12.68;4.72;;;;;;;13.13;100.00;101915.59;5017808;28;20036;-43
2022/05/22 00:09:50;;;;;;;13.48;4.72;;;;;;;13.13;100.00;101912.06;5018152;28;20037;-46
2022/05/22 00:12:16;;;;;;;15.88;5.10;;;;;;;13.20;100.00;101895.22;5023457;28;20036;-45
2022/05/22 00:14:41;;;;;;;12.75;4.43;;;;;;;13.18;100.00;101907.09;5039125;28;20131;-45
2022/05/22 00:17:08;;;;;;;14.15;4.80;;;;;;;13.21;100.00;101902.25;5036575;28;20476;-44
2022/05/22 00:19:34;;;;;;;14.38;4.70;;;;;;;13.18;100.00;101891.84;5024491;28;20017;-44
2022/05/22 00:22:00;;;;;;;14.02;4.57;;;;;;;13.16;100.00;101895.69;5038174;28;20095;-44
2022/05/22 00:24:29;;;;;;;11.73;4.43;;;;;;;13.16;100.00;101887.63;5037067;28;20032;-43
2022/05/22 00:26:55;;;;;;;17.23;5.10;;;;;;;13.14;100.00;101887.78;5038595;28;20223;-43
2022/05/22 00:29:20;;;;;;;18.92;4.82;;;;;;;13.11;100.00;101887.25;5037470;28;20037;-43
2022/05/22 00:31:46;;;;;;;16.77;5.05;;;;;;;13.02;100.00;101884.47;5038503;28;20909;-47
2022/05/22 00:34:12;;;;;;;17.63;4.78;;;;;;;12.96;100.00;101884.25;5021461;28;20158;-44
2022/05/22 00:36:37;;;;;;;13.73;4.70;;;;;;;12.90;100.00;101887.50;5017221;28;20036;-45
2022/05/22 00:39:03;;;;;;;14.65;4.70;;;;;;;12.87;100.00;101886.00;5018166;28;20036;-44
2022/05/22 00:41:29;;;;;;;22.63;5.28;;;;;;;12.83;100.00;101881.91;5018329;28;20025;-46
2022/05/22 00:43:56;;;;;;;14.40;4.72;;;;;;;12.70;100.00;101887.63;5018600;28;20059;-44
2022/05/22 00:46:23;;;;;;;12.27;4.40;;;;;;;12.58;100.00;101878.97;5018100;28;20095;-43
2022/05/22 00:48:54;;;;;;;14.43;4.60;;;;;;;12.57;100.00;101881.78;5018526;28;20036;-43
2022/05/22 00:51:33;;;;;;;18.00;4.57;;;;;;;12.55;100.00;101884.59;5016679;28;20083;-45
2022/05/22 00:54:03;;;;;;;10.35;4.75;;;;;;;12.49;100.00;101887.88;5018105;28;20040;-43
2022/05/22 00:56:35;;;;;;;20.20;5.07;;;;;;;12.50;100.00;101884.22;5016820;28;20041;-44
2022/05/22 00:59:04;;;;;;;18.48;5.00;;;;;;;12.55;100.00;101873.88;5018583;28;20124;-44
2022/05/22 01:01:29;;;;;;;14.25;4.63;;;;;;;12.57;100.00;101857.66;4999774;28;20025;-45
2022/05/22 01:03:55;;;;;;;13.80;4.75;;;;;;;12.61;100.00;101859.03;5018508;28;20071;-47
2022/05/22 01:06:24;;;;;;;10.38;4.80;;;;;;;12.59;100.00;101866.38;5016526;28;20021;-45
2022/05/22 01:08:50;;;;;;;9.57;4.43;;;;;;;12.56;100.00;101870.22;5016510;28;20041;-47
2022/05/22 01:11:23;;;;;;;13.15;4.90;;;;;;;12.57;100.00;101871.06;4998844;28;20029;-44
2022/05/22 01:13:52;;;;;;;15.43;5.10;;;;;;;12.53;100.00;101878.56;5017927;28;20454;-44
2022/05/22 01:16:18;;;;;;;19.23;5.40;;;;;;;12.49;100.00;101882.50;5017515;28;20372;-47
2022/05/22 01:18:50;;;;;;;13.10;4.88;;;;;;;12.45;100.00;101879.28;5018182;28;20071;-47
2022/05/22 01:21:26;;;;;;;14.98;4.78;;;;;;;12.39;100.00;101882.56;5016056;28;20103;-43
2022/05/22 01:23:52;;;;;;;11.40;5.03;;;;;;;12.31;100.00;101872.59;5017482;28;20701;-44
2022/05/22 01:26:19;;;;;;;14.15;5.03;;;;;;;12.30;100.00;101868.22;5017262;28;20021;-46
2022/05/22 01:28:44;;;;;;;18.55;5.68;;;;;;;12.29;100.00;101861.19;5018370;28;20029;-43
2022/05/22 01:31:10;;;;;;;13.88;5.18;;;;;;;12.30;100.00;101854.84;5017539;28;20033;-44
2022/05/22 01:33:37;;;;;;;14.63;5.10;;;;;;;12.25;100.00;101851.75;5028704;28;20036;-48
2022/05/22 01:36:04;;;;;;;20.35;5.55;;;;;;;12.22;100.00;101857.41;5036901;28;20025;-43
2022/05/22 01:38:29;;;;;;;16.50;5.28;;;;;;;12.18;100.00;101852.47;5034944;28;20383;-44
2022/05/22 01:40:54;;;;;;;16.48;5.75;;;;;;;12.18;100.00;101856.00;5037638;28;20021;-46
2022/05/22 01:43:20;;;;;;;16.55;5.53;;;;;;;12.19;100.00;101851.50;5018797;28;20021;-45
2022/05/22 01:45:45;;;;;;;14.73;5.50;;;;;;;12.15;100.00;101842.06;5037974;28;20035;-44
2022/05/22 01:48:11;;;;;;;15.70;5.63;;;;;;;12.15;100.00;101842.91;5036582;28;20040;-45
2022/05/22 01:50:38;;;;;;;18.25;6.13;;;;;;;12.17;100.00;101842.75;5037122;28;20501;-44
2022/05/22 01:53:04;;;;;;;23.25;6.57;;;;;;;12.16;100.00;101852.63;5036109;28;20021;-43
2022/05/22 01:55:29;;;;;;;18.92;6.47;;;;;;;12.15;100.00;101845.56;5035457;28;20028;-44
2022/05/22 01:57:54;;;;;;;22.83;7.03;;;;;;;12.15;100.00;101840.22;5024939;28;20056;-44
2022/05/22 02:00:20;;;;;;;18.75;6.40;;;;;;;12.15;100.00;101850.09;5016483;28;20033;-44
2022/05/22 02:02:46;;;;;;;18.20;6.70;;;;;;;12.15;100.00;101848.25;5016276;28;20372;-45
2022/05/22 02:05:13;;;;;;;18.25;6.78;;;;;;;12.20;100.00;101845.13;5017265;28;20028;-46
2022/05/22 02:10:24;;;;;;;19.20;6.55;;;;;;;12.12;100.00;101832.50;5015931;28;20044;-45
2022/05/22 02:12:51;;;;;;;17.23;6.28;;;;;;;12.09;100.00;101827.44;5015673;28;20108;-45
2022/05/22 02:15:17;;;;;;;13.50;6.35;;;;;;;12.05;100.00;101826.03;4999024;28;20017;-47
2022/05/22 02:17:42;;;;;;;16.95;6.50;;;;;;;12.05;100.00;101823.34;5017075;28;20021;-47
2022/05/22 02:20:08;;;;;;;19.90;7.20;;;;;;;12.06;100.00;101822.38;5017084;28;20087;-44
2022/05/22 02:22:39;;;;;;;23.17;6.72;;;;;;;12.00;100.00;101825.63;5015700;28;20076;-45
2022/05/22 02:25:05;;;;;;;21.80;7.35;;;;;;;11.97;100.00;101826.78;5017011;28;20022;-43
2022/05/22 02:27:31;;;;;;;17.13;6.97;;;;;;;11.94;100.00;101822.53;5016107;28;20044;-46
2022/05/22 02:29:59;;;;;;;14.93;6.22;;;;;;;11.87;100.00;101825.94;5017518;28;20352;-47
2022/05/22 02:32:24;;;;;;;14.30;6.63;;;;;;;11.76;100.00;101813.53;5016173;28;20578;-43
2022/05/22 02:34:49;;;;;;;15.60;6.53;;;;;;;11.71;100.00;101811.31;5017840;28;20034;-45
2022/05/22 02:37:14;;;;;;;15.93;6.45;;;;;;;11.67;100.00;101804.56;5016489;28;20396;-43
2022/05/22 02:39:39;;;;;;;16.70;6.63;;;;;;;11.62;100.00;101800.63;5016436;28;20041;-44
2022/05/22 02:42:05;;;;;;;17.77;6.68;;;;;;;11.57;100.00;101795.69;4998869;28;20472;-44
2022/05/22 02:44:31;;;;;;;18.10;6.68;;;;;;;11.49;100.00;101799.13;5016065;28;20040;-46
2022/05/22 02:46:56;;;;;;;17.30;6.43;;;;;;;11.40;100.00;101786.59;5016804;28;20128;-45
2022/05/22 02:49:21;;;;;;;18.50;6.68;;;;;;;11.37;100.00;101789.53;5020682;28;20606;-47
2022/05/22 02:51:47;;;;;;;20.58;6.70;;;;;;;11.35;100.00;101794.19;5019873;28;20032;-43
2022/05/22 02:54:12;;;;;;;18.10;6.78;;;;;;;11.31;100.00;101799.00;5020616;28;20034;-45
2022/05/22 02:56:37;;;;;;;20.17;6.90;;;;;;;11.29;100.00;101811.66;5019939;28;20372;-45
2022/05/22 02:59:02;;;;;;;15.00;6.90;;;;;;;11.20;100.00;101808.00;5019843;28;20121;-45
2022/05/22 03:01:28;;;;;;;23.75;7.13;;;;;;;11.18;100.00;101799.31;5002217;28;20048;-44
2022/05/22 03:03:53;;;;;;;19.95;7.03;;;;;;;11.15;100.00;101801.38;5021015;28;20112;-43
2022/05/22 03:09:04;;;;;;;20.00;6.70;;;;;;;11.11;100.00;101802.66;5020046;28;20056;-45
2022/05/22 03:11:29;;;;;;;15.50;7.22;;;;;;;11.08;100.00;101789.56;5001144;28;20022;-46
2022/05/22 03:13:54;;;;;;;24.58;7.30;;;;;;;11.06;100.00;101788.88;5020341;28;20518;-44
2022/05/22 03:16:20;;;;;;;22.05;7.40;;;;;;;11.03;100.00;101792.66;5018918;28;20021;-47
2022/05/22 03:18:45;;;;;;;18.55;6.78;;;;;;;11.00;100.00;101787.63;5020540;28;20037;-43
2022/05/22 03:21:12;;;;;;;22.60;7.63;;;;;;;10.94;100.00;101783.66;5019523;28;20107;-43
2022/05/22 03:23:38;;;;;;;22.92;7.50;;;;;;;10.95;100.00;101787.19;5018458;28;20036;-44
2022/05/22 03:26:03;;;;;;;21.90;7.70;;;;;;;10.88;100.00;101781.56;5019100;28;20033;-43
2022/05/22 03:28:29;;;;;;;16.60;7.35;;;;;;;10.83;100.00;101781.16;5019419;28;20033;-43
2022/05/22 03:30:54;;;;;;;22.35;7.95;;;;;;;10.80;100.00;101784.09;5020419;28;20033;-45
2022/05/22 03:33:19;;;;;;;20.77;7.40;;;;;;;10.80;100.00;101782.25;5018484;28;20399;-44
2022/05/22 03:35:44;;;;;;;21.15;7.68;;;;;;;10.77;100.00;101777.19;5020376;28;20033;-44
2022/05/22 03:38:10;;;;;;;18.40;7.85;;;;;;;10.75;100.00;101771.13;5018023;28;20033;-43
2022/05/22 03:40:41;;;;;;;17.15;7.22;;;;;;;10.71;100.00;101767.06;5019308;28;20040;-42
2022/05/22 03:43:06;;;;;;;18.80;7.70;;;;;;;10.76;100.00;101761.28;5001780;28;20214;-43
2022/05/22 03:45:31;;;;;;;22.92;7.75;;;;;;;10.76;100.00;101754.13;5019057;28;20330;-42
2022/05/22 03:47:57;;;;;;;18.42;7.55;;;;;;;10.72;100.00;101758.06;5019531;28;20107;-43
2022/05/22 03:50:24;;;;;;;22.40;8.13;;;;;;;10.69;100.00;101752.97;5001389;28;20026;-44
2022/05/22 03:52:49;;;;;;;19.30;8.05;;;;;;;10.61;100.00;101764.38;5018011;28;20143;-43
2022/05/22 03:55:15;;;;;;;20.10;7.60;;;;;;;10.60;100.00;101762.69;5018652;28;20595;-48
2022/05/22 03:57:44;;;;;;;16.85;7.40;;;;;;;10.51;100.00;101771.53;4996858;28;20120;-45
2022/05/22 04:00:11;;;;;;;19.60;7.60;;;;;;;10.45;100.00;101780.97;4998855;28;20061;-45
2022/05/22 04:02:36;;;;;;;16.75;7.00;;;;;;;10.38;100.00;101774.44;4998879;28;20045;-47
2022/05/22 04:05:03;;;;;;;13.65;6.63;;;;;;;10.32;100.00;101774.16;5000179;28;20021;-44
2022/05/22 04:07:29;;;;;;;16.17;6.90;;;;;;;10.36;100.00;101778.25;4997500;28;20038;-43
2022/05/22 04:09:56;;;;;;;17.10;7.43;;;;;;;10.41;100.00;101776.03;4999366;28;20028;-45
2022/05/22 04:12:22;;;;;;;18.83;7.18;;;;;;;10.44;100.00;101771.25;4998569;28;20026;-44
2022/05/22 04:14:47;;;;;;;14.43;7.20;;;;;;;10.48;100.00;101765.63;4999888;28;20022;-43
2022/05/22 04:17:12;;;;;;;14.75;7.07;;;;;;;10.52;100.00;101764.34;4999165;28;20034;-45
2022/05/22 04:19:38;;;;;;;15.40;6.97;;;;;;;10.56;100.00;101763.13;4999417;28;20057;-44
2022/05/22 04:22:04;;;;;;;16.52;7.53;;;;;;;10.61;100.00;101763.56;4998177;28;20517;-45
2022/05/22 04:27:13;;;;;;;17.23;7.13;;;;;;;10.64;100.00;101748.09;4999021;28;20524;-46
2022/05/22 04:29:38;;;;;;;18.17;7.85;;;;;;;10.69;100.00;101760.16;4999280;28;20026;-44
2022/05/22 04:32:04;;;;;;;18.63;8.15;;;;;;;10.72;100.00;101757.22;4997110;28;20531;-44
2022/05/22 04:34:30;;;;;;;19.35;8.45;;;;;;;10.73;100.00;101757.09;4996704;28;20050;-47
2022/05/22 04:36:55;;;;;;;20.10;8.00;;;;;;;10.76;100.00;101753.28;4998327;28;20038;-43
2022/05/22 04:39:20;;;;;;;18.25;8.07;;;;;;;10.82;100.00;101758.06;4997938;28;20029;-46
2022/05/22 04:41:46;;;;;;;19.40;7.80;;;;;;;10.79;100.00;101753.88;4997847;28;20632;-46
2022/05/22 04:44:11;;;;;;;24.25;8.25;;;;;;;10.83;100.00;101754.44;4999621;28;20025;-44
2022/05/22 04:46:36;;;;;;;15.02;7.78;;;;;;;10.86;100.00;101761.31;4998204;28;20400;-46
2022/05/22 04:49:02;;;;;;;16.90;7.97;;;;;;;10.90;100.00;101760.06;4998544;28;20036;-45
2022/05/22 04:51:27;;;;;;;17.80;8.52;;;;;;;10.88;100.00;101759.31;4997141;28;20034;-44
2022/05/22 04:53:53;;;;;;;16.35;8.07;;;;;;;10.90;100.00;101757.38;4998330;28;20052;-48
2022/05/22 04:56:19;;;;;;;15.55;8.23;;;;;;;10.93;100.00;101757.06;4997522;28;20030;-43
2022/05/22 04:58:45;;;;;;;20.00;8.73;;;;;;;10.95;100.00;101750.63;5014968;28;20045;-43
2022/05/22 05:01:11;;;;;;;16.40;8.63;;;;;;;10.96;100.00;101749.66;5018388;28;20487;-44
2022/05/22 05:03:37;;;;;;;17.95;8.07;;;;;;;10.96;100.00;101746.09;5017752;28;20131;-47
2022/05/22 05:06:03;;;;;;;19.95;8.60;;;;;;;11.00;100.00;101742.19;5018380;28;20164;-44
2022/05/22 05:08:29;;;;;;;13.73;8.25;;;;;;;11.04;100.00;101737.41;5016091;28;20032;-44
2022/05/22 05:10:56;;;;;;;20.77;9.20;;;;;;;11.08;100.00;101746.81;5018215;28;20029;-45
2022/05/22 05:13:21;;;;;;;14.57;9.23;;;;;;;11.17;100.00;101743.28;5017435;28;20072;-43
2022/05/22 05:15:57;;;;;;;20.02;9.00;;;;;;;11.22;100.00;101737.50;5017842;28;20061;-47
2022/05/22 05:18:22;;;;;;;18.20;9.07;;;;;;;11.25;100.00;101743.38;5017135;28;20430;-49
2022/05/22 05:20:48;;;;;;;17.40;9.25;;;;;;;11.30;100.00;101743.84;5018036;28;20120;-46
2022/05/22 05:23:14;;;;;;;16.77;9.32;;;;;;;11.31;100.00;101750.84;5016477;28;20132;-44
2022/05/22 05:25:39;;;;;;;18.63;9.20;;;;;;;11.38;100.00;101748.44;4999435;28;20503;-45
2022/05/22 05:28:04;;;;;;;18.98;8.80;;;;;;;11.40;100.00;101751.81;5017648;28;20060;-47
2022/05/22 05:30:30;;;;;;;16.50;8.70;;;;;;;11.47;100.00;101755.63;5017565;28;20579;-44
2022/05/22 05:32:56;;;;;;;25.33;10.27;;;;;;;11.50;100.00;101751.81;5023737;28;20355;-44
2022/05/22 05:35:21;;;;;;;17.95;8.95;;;;;;;11.60;100.00;101759.81;5037535;28;20087;-45
2022/05/22 05:37:47;;;;;;;18.67;10.15;;;;;;;11.65;100.00;101761.03;5036448;28;20025;-43
2022/05/22 05:40:13;;;;;;;27.80;10.20;;;;;;;11.67;100.00;101752.88;5037213;28;20087;-45
2022/05/22 05:42:39;;;;;;;17.88;9.93;;;;;;;11.77;100.00;101746.50;5018812;28;20116;-43
2022/05/22 05:45:06;;;;;;;16.80;9.88;;;;;;;11.87;100.00;101757.16;5037794;28;20082;-45
2022/05/22 05:47:31;;;;;;;20.05;9.85;;;;;;;11.92;100.00;101757.59;5036347;28;20136;-44
2022/05/22 05:49:56;;;;;;;22.73;9.70;;;;;;;12.00;100.00;101753.31;5036043;28;20542;-44
2022/05/22 05:52:22;;;;;;;19.88;9.40;;;;;;;12.04;100.00;101755.56;5021442;28;20049;-46
2022/05/22 05:54:47;;;;;;;17.67;10.07;;;;;;;12.13;100.00;101749.34;5016012;28;20136;-46
2022/05/22 05:57:16;;;;;;;20.08;10.32;;;;;;;12.19;100.00;101755.09;5015700;28;20054;-47
2022/05/22 05:59:42;;;;;;;20.20;10.15;;;;;;;12.27;100.00;101755.16;5017456;28;20107;-47
2022/05/22 06:02:11;;;;;;;23.15;10.30;;;;;;;12.39;100.00;101755.78;5016375;28;20021;-44
2022/05/22 06:04:39;;;;;;;19.70;10.45;;;;;;;12.49;100.00;101757.44;5016361;28;20049;-44
2022/05/22 06:07:04;;;;;;;18.17;10.05;;;;;;;12.59;100.00;101764.56;5015759;28;20522;-44
2022/05/22 06:09:30;;;;;;;20.90;10.27;;;;;;;12.72;100.00;101756.16;5015703;28;20053;-46
2022/05/22 06:11:55;;;;;;;22.50;10.45;;;;;;;12.82;100.00;101751.56;5017228;28;20025;-46
2022/05/22 06:14:20;;;;;;;20.92;10.23;;;;;;;12.91;100.00;101755.97;5016949;28;20025;-44
2022/05/22 06:16:47;;;;;;;23.35;10.35;;;;;;;13.02;100.00;101760.28;5016143;28;20025;-45
2022/05/22 06:19:12;;;;;;;22.65;10.30;;;;;;;13.09;100.00;101750.63;5017593;28;20026;-44
2022/05/22 06:21:37;;;;;;;26.13;11.05;;;;;;;13.23;100.00;101750.03;5017304;28;21161;-45
2022/05/22 06:24:03;;;;;;;19.33;10.18;;;;;;;13.38;100.00;101755.72;5023799;28;20033;-44
2022/05/22 06:26:28;;;;;;;21.60;11.35;;;;;;;13.53;100.00;101760.53;5028449;28;20017;-44
2022/05/22 06:28:53;;;;;;;26.52;10.48;;;;;;;13.62;100.00;101751.50;5005402;28;20064;-45
2022/05/22 06:31:19;;;;;;;21.23;9.65;;;;;;;13.73;100.00;101753.06;5021767;28;20033;-45
2022/05/22 06:33:44;;;;;;;22.95;9.70;;;;;;;13.80;100.00;101762.19;5023279;28;20036;-46
2022/05/22 06:36:15;;;;;;;24.00;10.35;;;;;;;13.88;100.00;101758.69;5022156;28;20431;-45
2022/05/22 06:41:25;;;;;;;24.38;9.75;;;;;;;14.13;100.00;101773.91;5024970;28;20094;-44
2022/05/22 06:43:51;;;;;;;27.27;9.95;;;;;;;14.23;100.00;101763.03;5023197;28;20460;-44
2022/05/22 06:46:18;;;;;;;22.15;9.98;;;;;;;14.29;100.00;101770.47;5023427;28;20021;-44
2022/05/22 06:48:43;;;;;;;30.52;9.75;;;;;;;14.45;100.00;101775.03;5023710;28;20029;-44
2022/05/22 06:51:09;;;;;;;21.48;9.50;;;;;;;14.65;100.00;101769.41;5023349;28;20036;-44
2022/05/22 06:53:34;;;;;;;24.42;9.68;;;;;;;14.84;100.00;101777.16;5026268;28;20442;-44
2022/05/22 06:55:59;;;;;;;20.17;9.02;;;;;;;15.03;100.00;101769.78;5022019;28;20517;-46
2022/05/22 06:58:25;;;;;;;22.05;9.50;;;;;;;15.13;100.00;101778.53;5021546;28;20432;-46
2022/05/22 07:00:53;;;;;;;24.75;10.10;;;;;;;15.27;100.00;101763.53;5022890;28;20348;-45
2022/05/22 07:03:18;;;;;;;22.02;8.93;;;;;;;15.46;100.00;101767.72;5021099;28;20029;-45
2022/05/22 07:05:44;;;;;;;18.13;8.85;;;;;;;15.55;100.00;101763.19;5019946;28;20033;-44
2022/05/22 07:08:09;;;;;;;19.13;9.20;;;;;;;15.66;100.00;101763.66;5029826;28;20393;-43
2022/05/22 07:13:19;;;;;;;23.67;8.65;;;;;;;15.81;96.01;101765.66;5027291;28;20052;-46
2022/05/22 07:15:45;;;;;;;19.52;8.32;;;;;;;15.66;97.44;101763.66;5023272;28;20021;-45
2022/05/22 07:18:10;;;;;;;25.65;9.00;;;;;;;15.66;96.91;101758.28;5023848;28;20424;-44
2022/05/22 07:20:35;;;;;;;19.95;8.07;;;;;;;15.81;97.44;101762.97;5033297;28;20013;-46
2022/05/22 07:23:01;;;;;;;22.05;8.88;;;;;;;15.97;97.79;101764.75;5031307;28;20408;-44
2022/05/22 07:25:26;;;;;;;19.10;8.02;;;;;;;16.15;93.31;101762.66;5036765;28;20308;-44
2022/05/22 07:27:52;;;;;;;20.27;8.10;;;;;;;16.31;91.82;101755.50;5026941;28;20024;-48
2022/05/22 07:30:17;;;;;;;19.80;8.15;;;;;;;16.46;96.07;101745.63;5042762;28;20980;-43
2022/05/22 07:32:43;;;;;;;16.70;8.55;;;;;;;16.62;93.04;101741.19;5021639;28;20025;-43
2022/05/22 07:35:08;;;;;;;22.35;9.02;;;;;;;16.75;92.36;101744.09;5039211;28;20412;-45
2022/05/22 07:37:34;;;;;;;19.88;8.38;;;;;;;16.92;94.79;101748.41;5036830;28;20036;-45
2022/05/22 07:39:59;;;;;;;19.58;8.65;;;;;;;17.01;92.20;101740.25;5022260;28;20594;-43
2022/05/22 07:42:24;;;;;;;20.13;8.20;;;;;;;16.92;89.26;101745.72;5023801;28;20413;-43
2022/05/22 07:44:49;;;;;;;21.17;10.07;;;;;;;17.00;92.48;101739.38;5030359;28;20035;-43
2022/05/22 07:47:15;;;;;;;18.45;8.02;;;;;;;17.00;88.09;101752.03;5017528;28;20026;-49
2022/05/22 07:52:24;;;;;;;19.48;7.88;;;;;;;17.33;88.67;101750.72;5018063;28;20407;-44
2022/05/22 07:54:50;;;;;;;26.00;9.15;;;;;;;17.43;90.32;101749.63;4999449;28;20018;-45
2022/05/22 07:57:15;;;;;;;21.45;9.13;;;;;;;17.56;90.80;101746.28;5016572;28;20037;-45
2022/05/22 07:59:41;;;;;;;19.67;8.30;;;;;;;17.64;87.34;101738.09;5018648;28;20029;-45
2022/05/22 08:02:08;;;;;;;20.00;7.20;;;;;;;17.62;85.04;101740.16;5017266;28;20056;-44
2022/05/22 08:04:34;;;;;;;15.93;7.25;;;;;;;17.60;85.56;101739.47;5017595;28;20061;-44
2022/05/22 08:06:59;;;;;;;21.85;7.07;;;;;;;17.60;83.04;101736.78;5016781;28;20027;-43
2022/05/22 08:09:25;;;;;;;19.25;6.60;;;;;;;17.67;82.75;101732.34;5018342;28;20063;-45
2022/05/22 08:11:51;;;;;;;20.00;6.97;;;;;;;17.63;82.17;101731.00;5030516;28;20021;-44
2022/05/22 08:14:17;;;;;;;17.38;6.40;;;;;;;17.72;81.49;101724.50;5016747;28;20029;-45
2022/05/22 08:16:43;;;;;;;14.85;5.63;;;;;;;17.85;82.86;101731.94;5023076;28;20187;-46
2022/05/22 08:19:09;;;;;;;15.48;6.32;;;;;;;18.00;80.19;101727.38;5017877;28;20044;-43
2022/05/22 08:21:34;;;;;;;16.42;6.78;;;;;;;18.11;81.33;101717.09;5015859;28;20029;-44
2022/05/22 08:24:00;;;;;;;16.65;6.80;;;;;;;18.21;77.43;101710.38;5016777;28;20325;-44
2022/05/22 08:26:27;;;;;;;17.13;6.53;;;;;;;18.33;76.77;101712.56;5016351;28;20100;-48
2022/05/22 08:28:52;;;;;;;17.40;6.70;;;;;;;18.52;79.18;101708.44;5020562;28;20024;-45
2022/05/22 08:31:17;;;;;;;15.00;6.80;;;;;;;18.58;80.08;101705.75;5024907;28;20021;-45
2022/05/22 08:33:43;;;;;;;15.55;6.43;;;;;;;18.73;78.03;101700.28;5010208;28;20060;-44
2022/05/22 08:36:08;;;;;;;16.40;6.45;;;;;;;18.79;74.85;101699.53;5020516;28;20041;-43
2022/05/22 08:38:33;;;;;;;15.40;6.70;;;;;;;18.72;74.48;101682.41;5026633;28;20094;-46
2022/05/22 08:41:19;;;;;;;16.02;6.03;;;;;;;18.95;78.48;101682.19;5020284;28;20103;-43
2022/05/22 08:43:51;;;;;;;16.25;6.22;;;;;;;19.17;75.95;101676.72;5017549;28;20368;-45
2022/05/22 08:46:28;;;;;;;16.02;5.75;;;;;;;19.31;74.07;101678.47;5019126;28;20025;-45
2022/05/22 08:48:57;;;;;;;15.85;5.40;;;;;;;19.54;69.57;101674.66;5017463;28;20344;-45
2022/05/22 08:51:40;;;;;;;16.83;4.80;;;;;;;19.60;70.68;101673.03;5015474;28;20281;-45
2022/05/22 08:54:22;;;;;;;16.25;5.50;;;;;;;19.53;69.20;101668.38;5001706;28;20107;-45
2022/05/22 08:59:37;;;;;;;16.88;5.80;;;;;;;19.84;70.64;101656.28;5021214;28;20064;-44
2022/05/22 09:02:24;;;;;;;13.57;5.40;;;;;;;19.87;67.45;101657.72;5017670;28;20029;-46
2022/05/22 09:05:12;;;;;;;12.23;5.32;;;;;;;19.86;71.68;101651.50;5018084;28;20140;-46
2022/05/22 09:08:03;;;;;;;16.27;6.10;;;;;;;20.23;70.65;101651.16;5015848;28;20504;-46
2022/05/22 09:10:44;;;;;;;;;;;;;;;20.44;71.84;101659.13;5018190;28;20424;-43
2022/05/22 09:13:31;;;;;;;19.55;6.90;;;;;;;20.16;66.07;101650.31;5017568;28;19920;-47
2022/05/22 09:16:10;;;;;;;14.85;6.38;;;;;;;19.84;69.83;101647.28;5026640;28;20448;-44
2022/05/22 09:18:42;;;;;;;15.82;6.97;;;;;;;19.70;70.94;101646.38;5017781;28;20041;-48
2022/05/22 09:21:29;;;;;;;17.17;7.70;;;;;;;19.69;69.83;101645.56;5016688;28;20036;-46
2022/05/22 09:24:04;;;;;;;20.58;7.32;;;;;;;19.58;68.24;101643.41;5016147;28;20071;-44
2022/05/22 09:26:57;;;;;;;15.95;6.88;;;;;;;19.43;70.00;101645.41;5018781;28;20010;-46
2022/05/22 09:29:44;;;;;;;15.80;7.65;;;;;;;19.65;71.54;101638.84;5020767;28;20071;-45
2022/05/22 09:32:37;;;;;;;17.85;7.20;;;;;;;19.82;69.26;101635.81;5016591;28;20119;-43
2022/05/22 09:35:11;;;;;;;14.55;6.68;;;;;;;20.17;69.17;101635.72;4999281;28;20033;-46
2022/05/22 09:38:01;;;;;;;18.60;5.50;;;;;;;20.49;65.47;101620.53;5014780;28;20049;-45
2022/05/22 09:40:38;;;;;;;14.55;5.93;;;;;;;20.54;58.22;101622.63;5018925;28;20470;-46
2022/05/22 09:43:06;;;;;;;12.85;6.10;;;;;;;20.54;59.86;101615.31;5027689;28;20471;-44
2022/05/22 09:45:49;;;;;;;19.58;6.55;;;;;;;20.43;61.93;101633.03;5022778;28;20036;-46
2022/05/22 09:48:57;;;;;;;15.43;6.75;;;;;;;20.33;64.01;101624.47;5016415;28;20033;-45
2022/05/22 09:51:54;;;;;;;16.80;6.10;;;;;;;20.36;63.06;101623.22;5014568;28;20030;-44
2022/05/22 09:54:34;;;;;;;14.77;6.00;;;;;;;20.46;65.22;101607.38;4962616;28;20046;-44
2022/05/22 09:57:13;;;;;;;14.70;6.20;;;;;;;20.40;65.79;101613.63;5026959;28;20132;-46
2022/05/22 09:59:59;;;;;;;17.38;6.45;;;;;;;20.32;65.40;101606.53;5026094;28;20033;-44
2022/05/22 10:02:54;;;;;;;16.15;6.75;;;;;;;20.18;65.70;101616.53;5017083;28;20547;-45
2022/05/22 10:05:19;;;;;;;16.58;6.43;;;;;;;20.26;67.27;101616.31;5028277;28;20086;-44
2022/05/22 10:07:59;;;;;;;15.43;7.00;;;;;;;20.20;63.45;101624.47;5018195;28;20021;-44
2022/05/22 10:10:37;;;;;;;17.65;7.00;;;;;;;19.92;63.87;101620.88;5021290;28;20128;-46
2022/05/22 10:13:17;;;;;;;18.15;7.30;;;;;;;20.10;65.49;101622.97;5036365;28;20533;-45
2022/05/22 10:16:07;;;;;;;19.05;7.28;;;;;;;20.63;66.43;101614.06;5034448;28;20107;-45
2022/05/22 10:18:54;;;;;;;16.88;7.10;;;;;;;20.85;62.64;101617.41;5018423;28;20037;-46
2022/05/22 10:21:39;;;;;;;16.15;7.50;;;;;;;20.90;61.40;101618.66;5015559;28;20056;-47
2022/05/22 10:24:33;;;;;;;15.68;7.60;;;;;;;20.92;60.72;101611.97;5020134;28;20025;-46
2022/05/22 10:27:23;;;;;;;17.75;7.18;;;;;;;20.77;58.62;101608.66;5019967;28;20033;-44
2022/05/22 10:29:56;;;;;;;17.67;7.38;;;;;;;20.44;60.41;101604.88;5018780;28;20115;-43
2022/05/22 10:32:31;;;;;;;16.70;7.05;;;;;;;20.59;57.69;101604.66;5017457;28;20379;-43
2022/05/22 10:35:09;;;;;;;16.17;6.82;;;;;;;20.75;58.54;101595.28;5017383;28;20151;-43
2022/05/22 10:37:52;;;;;;;18.92;7.07;;;;;;;21.28;59.09;101597.03;5023135;28;20709;-43
2022/05/22 10:40:23;;;;;;;14.15;6.70;;;;;;;21.30;53.48;101594.97;5030008;28;20040;-45
2022/05/22 10:42:52;;;;;;;15.80;6.72;;;;;;;21.09;53.25;101589.78;5014331;28;20037;-45
2022/05/22 10:45:33;;;;;;;14.13;7.05;;;;;;;21.04;56.74;101590.44;5034774;28;20048;-45
2022/05/22 10:48:24;;;;;;;12.13;5.68;;;;;;;21.32;55.21;101582.00;5019844;28;20026;-45
2022/05/22 10:51:11;;;;;;;14.60;6.10;;;;;;;;;;5019743;28;20029;-47
2022/05/22 10:53:48;;;;;;;11.05;5.68;;;;;;;21.72;53.11;101578.28;5025963;28;20029;-46
2022/05/22 10:56:14;;;;;;;15.52;6.20;;;;;;;21.63;52.85;101558.69;5029674;28;20041;-49
2022/05/22 10:58:51;;;;;;;14.63;5.73;;;;;;;21.59;53.02;101561.00;5020317;28;20041;-44
2022/05/22 11:01:19;;;;;;;17.30;5.35;;;;;;;21.81;53.88;101557.97;5029386;28;20056;-46
2022/05/22 11:03:45;;;;;;;16.05;6.13;;;;;;;22.08;53.20;101557.75;5031237;28;20405;-46
2022/05/22 11:06:18;;;;;;;16.33;5.88;;;;;;;22.19;54.29;101542.63;5031208;28;20036;-46
2022/05/22 11:08:50;;;;;;;13.65;5.93;;;;;;;22.41;52.45;101543.09;5031562;28;20029;-44
2022/05/22 11:11:30;;;;;;;21.35;6.20;;;;;;;22.61;52.41;101541.03;5028780;28;20022;-48
2022/05/22 11:14:15;;;;;;;15.70;6.05;;;;;;;22.95;56.22;101548.84;5028959;28;20515;-45
2022/05/22 11:16:41;;;;;;;18.73;5.60;;;;;;;22.92;53.00;101544.69;5036781;28;20063;-47
2022/05/22 11:19:21;;;;;;;16.00;5.47;;;;;;;22.85;52.03;101549.38;5038737;28;20463;-48
2022/05/22 11:22:06;;;;;;;14.33;5.33;;;;;;;22.57;54.47;101538.97;5037220;28;20029;-44
2022/05/22 11:24:50;;;;;;;16.17;6.18;;;;;;;22.27;53.62;101526.84;5038268;28;20021;-49
2022/05/22 11:27:39;;;;;;;16.38;6.00;;;;;;;21.93;54.93;101530.91;5021540;28;20108;-47
2022/05/22 11:30:52;;;;;;;16.90;6.10;;;;;;;21.91;55.42;101524.81;5039043;28;20029;-45
2022/05/22 11:33:23;;;;;;;17.92;6.10;;;;;;;22.12;54.41;101519.00;4955297;28;20039;-45
2022/05/22 11:35:58;;;;;;;15.60;6.78;;;;;;;22.45;50.04;101511.66;5026862;28;20260;-47
2022/05/22 11:38:34;;;;;;;15.93;6.32;;;;;;;22.70;50.61;101517.88;5034775;28;20029;-47
2022/05/22 11:41:33;;;;;;;14.20;5.90;;;;;;;23.09;53.59;101502.16;5039279;28;20052;-46